sensor_id;sensor_type;location;lat;lon;timestamp;P1;durP1;ratioP1;P2;durP2;ratioP2
53881;SDS011;39794;55.782;37.452;2023-03-26T00:00:09;15.43;;;9.52;;
53881;SDS011;39794;55.782;37.452;2023-03-26T00:02:41;13.75;;;9.40;;
53881;SDS011;39794;55.782;37.452;2023-03-26T00:05:09;12.23;;;9.68;;
53881;SDS011;39794;55.782;37.452;2023-03-26T00:07:41;10.63;;;8.13;;
53881;SDS011;39794;55.782;37.452;2023-03-26T00:10:11;12.00;;;8.68;;
53881;SDS011;39794;55.782;37.452;2023-03-26T00:12:41;12.90;;;8.90;;
53881;SDS011;39794;55.782;37.452;2023-03-26T00:15:10;15.27;;;8.70;;
53881;SDS011;39794;55.782;37.452;2023-03-26T00:17:38;15.38;;;9.10;;
53881;SDS011;39794;55.782;37.452;2023-03-26T00:20:07;13.15;;;9.13;;
53881;SDS011;39794;55.782;37.452;2023-03-26T00:22:36;12.82;;;8.85;;
53881;SDS011;39794;55.782;37.452;2023-03-26T00:25:06;11.68;;;9.10;;
53881;SDS011;39794;55.782;37.452;2023-03-26T00:27:35;13.07;;;9.20;;
53881;SDS011;39794;55.782;37.452;2023-03-26T00:30:04;13.95;;;9.98;;
53881;SDS011;39794;55.782;37.452;2023-03-26T00:32:34;15.68;;;10.98;;
53881;SDS011;39794;55.782;37.452;2023-03-26T00:35:03;14.27;;;10.25;;
53881;SDS011;39794;55.782;37.452;2023-03-26T00:37:32;15.52;;;9.70;;
53881;SDS011;39794;55.782;37.452;2023-03-26T00:40:01;15.77;;;10.80;;
53881;SDS011;39794;55.782;37.452;2023-03-26T00:42:34;17.52;;;10.18;;
53881;SDS011;39794;55.782;37.452;2023-03-26T00:45:04;14.40;;;9.60;;
53881;SDS011;39794;55.782;37.452;2023-03-26T00:47:33;16.27;;;11.15;;
53881;SDS011;39794;55.782;37.452;2023-03-26T00:50:02;19.65;;;11.65;;
53881;SDS011;39794;55.782;37.452;2023-03-26T00:52:31;19.73;;;11.43;;
53881;SDS011;39794;55.782;37.452;2023-03-26T00:55:02;19.50;;;12.10;;
53881;SDS011;39794;55.782;37.452;2023-03-26T00:57:31;20.15;;;12.48;;
53881;SDS011;39794;55.782;37.452;2023-03-26T01:00:04;19.00;;;10.98;;
53881;SDS011;39794;55.782;37.452;2023-03-26T01:02:42;20.38;;;11.32;;
53881;SDS011;39794;55.782;37.452;2023-03-26T01:05:37;18.60;;;10.95;;
53881;SDS011;39794;55.782;37.452;2023-03-26T01:08:12;22.27;;;11.57;;
53881;SDS011;39794;55.782;37.452;2023-03-26T01:10:52;22.27;;;11.95;;
53881;SDS011;39794;55.782;37.452;2023-03-26T01:13:29;21.30;;;11.93;;
53881;SDS011;39794;55.782;37.452;2023-03-26T01:16:01;23.05;;;11.23;;
53881;SDS011;39794;55.782;37.452;2023-03-26T01:18:31;21.35;;;11.85;;
53881;SDS011;39794;55.782;37.452;2023-03-26T01:21:07;24.48;;;11.73;;
53881;SDS011;39794;55.782;37.452;2023-03-26T01:23:41;27.02;;;11.07;;
53881;SDS011;39794;55.782;37.452;2023-03-26T01:26:17;21.83;;;11.25;;
53881;SDS011;39794;55.782;37.452;2023-03-26T01:28:55;22.20;;;10.85;;
53881;SDS011;39794;55.782;37.452;2023-03-26T01:31:25;30.20;;;11.80;;
53881;SDS011;39794;55.782;37.452;2023-03-26T01:33:57;25.40;;;11.75;;
53881;SDS011;39794;55.782;37.452;2023-03-26T01:36:32;22.02;;;11.75;;
53881;SDS011;39794;55.782;37.452;2023-03-26T01:39:06;24.02;;;12.43;;
53881;SDS011;39794;55.782;37.452;2023-03-26T01:41:46;21.45;;;10.57;;
53881;SDS011;39794;55.782;37.452;2023-03-26T01:44:18;22.75;;;12.00;;
53881;SDS011;39794;55.782;37.452;2023-03-26T01:46:50;22.13;;;11.23;;
53881;SDS011;39794;55.782;37.452;2023-03-26T01:49:20;22.25;;;12.27;;
53881;SDS011;39794;55.782;37.452;2023-03-26T01:51:49;20.38;;;9.98;;
53881;SDS011;39794;55.782;37.452;2023-03-26T01:54:18;19.98;;;9.98;;
53881;SDS011;39794;55.782;37.452;2023-03-26T01:56:55;23.33;;;10.65;;
53881;SDS011;39794;55.782;37.452;2023-03-26T01:59:37;23.90;;;11.48;;
53881;SDS011;39794;55.782;37.452;2023-03-26T02:02:13;20.92;;;10.57;;
53881;SDS011;39794;55.782;37.452;2023-03-26T02:04:45;23.33;;;10.40;;
53881;SDS011;39794;55.782;37.452;2023-03-26T02:07:20;14.45;;;7.97;;
53881;SDS011;39794;55.782;37.452;2023-03-26T02:09:52;19.67;;;7.88;;
53881;SDS011;39794;55.782;37.452;2023-03-26T02:12:26;26.35;;;10.82;;
53881;SDS011;39794;55.782;37.452;2023-03-26T02:14:57;57.13;;;12.65;;
53881;SDS011;39794;55.782;37.452;2023-03-26T02:17:26;63.92;;;12.05;;
53881;SDS011;39794;55.782;37.452;2023-03-26T02:19:56;83.10;;;11.27;;
53881;SDS011;39794;55.782;37.452;2023-03-26T02:22:24;35.17;;;9.73;;
53881;SDS011;39794;55.782;37.452;2023-03-26T02:24:58;26.58;;;10.20;;
53881;SDS011;39794;55.782;37.452;2023-03-26T02:27:29;26.55;;;11.05;;
53881;SDS011;39794;55.782;37.452;2023-03-26T02:29:59;18.92;;;10.32;;
53881;SDS011;39794;55.782;37.452;2023-03-26T02:32:28;21.23;;;10.45;;
53881;SDS011;39794;55.782;37.452;2023-03-26T02:34:57;36.00;;;10.25;;
53881;SDS011;39794;55.782;37.452;2023-03-26T02:37:25;28.75;;;10.63;;
53881;SDS011;39794;55.782;37.452;2023-03-26T02:40:05;25.83;;;10.35;;
53881;SDS011;39794;55.782;37.452;2023-03-26T02:42:42;20.77;;;9.45;;
53881;SDS011;39794;55.782;37.452;2023-03-26T02:45:10;21.33;;;10.43;;
53881;SDS011;39794;55.782;37.452;2023-03-26T02:47:47;22.90;;;9.85;;
53881;SDS011;39794;55.782;37.452;2023-03-26T02:50:43;20.60;;;9.70;;
53881;SDS011;39794;55.782;37.452;2023-03-26T02:53:30;19.80;;;10.88;;
53881;SDS011;39794;55.782;37.452;2023-03-26T02:56:37;19.73;;;10.20;;
53881;SDS011;39794;55.782;37.452;2023-03-26T02:59:26;20.08;;;9.48;;
53881;SDS011;39794;55.782;37.452;2023-03-26T03:02:13;16.88;;;9.50;;
53881;SDS011;39794;55.782;37.452;2023-03-26T03:04:42;16.50;;;9.25;;
53881;SDS011;39794;55.782;37.452;2023-03-26T03:07:11;15.40;;;8.48;;
53881;SDS011;39794;55.782;37.452;2023-03-26T03:09:44;13.82;;;7.90;;
53881;SDS011;39794;55.782;37.452;2023-03-26T03:12:38;14.18;;;8.73;;
53881;SDS011;39794;55.782;37.452;2023-03-26T03:15:09;11.43;;;7.63;;
53881;SDS011;39794;55.782;37.452;2023-03-26T03:17:39;12.93;;;8.30;;
53881;SDS011;39794;55.782;37.452;2023-03-26T03:20:08;9.73;;;6.57;;
53881;SDS011;39794;55.782;37.452;2023-03-26T03:22:38;10.88;;;7.60;;
53881;SDS011;39794;55.782;37.452;2023-03-26T03:25:08;12.48;;;6.70;;
53881;SDS011;39794;55.782;37.452;2023-03-26T03:27:40;11.70;;;7.35;;
53881;SDS011;39794;55.782;37.452;2023-03-26T03:30:14;11.43;;;6.95;;
53881;SDS011;39794;55.782;37.452;2023-03-26T03:33:12;11.38;;;7.45;;
53881;SDS011;39794;55.782;37.452;2023-03-26T03:35:42;12.50;;;7.55;;
53881;SDS011;39794;55.782;37.452;2023-03-26T03:38:11;12.00;;;7.93;;
53881;SDS011;39794;55.782;37.452;2023-03-26T03:40:46;12.35;;;7.43;;
53881;SDS011;39794;55.782;37.452;2023-03-26T03:43:15;11.32;;;7.60;;
53881;SDS011;39794;55.782;37.452;2023-03-26T03:46:03;10.98;;;7.53;;
53881;SDS011;39794;55.782;37.452;2023-03-26T03:48:42;12.45;;;7.43;;
53881;SDS011;39794;55.782;37.452;2023-03-26T03:51:35;12.15;;;8.00;;
53881;SDS011;39794;55.782;37.452;2023-03-26T03:54:19;12.05;;;7.90;;
53881;SDS011;39794;55.782;37.452;2023-03-26T03:56:59;9.82;;;6.63;;
53881;SDS011;39794;55.782;37.452;2023-03-26T03:59:38;10.52;;;7.78;;
53881;SDS011;39794;55.782;37.452;2023-03-26T04:02:16;11.00;;;6.47;;
53881;SDS011;39794;55.782;37.452;2023-03-26T04:07:47;15.02;;;8.50;;
53881;SDS011;39794;55.782;37.452;2023-03-26T04:10:27;14.98;;;8.13;;
53881;SDS011;39794;55.782;37.452;2023-03-26T04:13:28;14.05;;;9.02;;
53881;SDS011;39794;55.782;37.452;2023-03-26T04:16:19;13.05;;;8.15;;
53881;SDS011;39794;55.782;37.452;2023-03-26T04:18:49;12.05;;;8.30;;
53881;SDS011;39794;55.782;37.452;2023-03-26T04:21:18;15.07;;;8.27;;
53881;SDS011;39794;55.782;37.452;2023-03-26T04:23:47;11.93;;;8.38;;
53881;SDS011;39794;55.782;37.452;2023-03-26T04:26:31;12.38;;;8.68;;
53881;SDS011;39794;55.782;37.452;2023-03-26T04:29:04;11.45;;;8.15;;
53881;SDS011;39794;55.782;37.452;2023-03-26T04:31:37;11.52;;;8.90;;
53881;SDS011;39794;55.782;37.452;2023-03-26T04:34:15;13.30;;;8.90;;
53881;SDS011;39794;55.782;37.452;2023-03-26T04:37:11;14.45;;;9.38;;
53881;SDS011;39794;55.782;37.452;2023-03-26T04:39:54;15.52;;;10.30;;
53881;SDS011;39794;55.782;37.452;2023-03-26T04:42:31;15.50;;;9.98;;
53881;SDS011;39794;55.782;37.452;2023-03-26T04:45:08;12.57;;;9.18;;
53881;SDS011;39794;55.782;37.452;2023-03-26T04:47:39;13.98;;;10.05;;
53881;SDS011;39794;55.782;37.452;2023-03-26T04:50:11;15.98;;;10.00;;
53881;SDS011;39794;55.782;37.452;2023-03-26T04:52:40;13.35;;;9.90;;
53881;SDS011;39794;55.782;37.452;2023-03-26T04:55:30;15.68;;;10.95;;
53881;SDS011;39794;55.782;37.452;2023-03-26T04:58:08;21.55;;;13.18;;
53881;SDS011;39794;55.782;37.452;2023-03-26T05:00:53;15.88;;;11.80;;
53881;SDS011;39794;55.782;37.452;2023-03-26T05:03:22;17.83;;;10.88;;
53881;SDS011;39794;55.782;37.452;2023-03-26T05:05:54;18.17;;;12.07;;
53881;SDS011;39794;55.782;37.452;2023-03-26T05:08:24;16.20;;;11.27;;
53881;SDS011;39794;55.782;37.452;2023-03-26T05:10:55;12.82;;;9.75;;
53881;SDS011;39794;55.782;37.452;2023-03-26T05:13:30;18.48;;;10.88;;
53881;SDS011;39794;55.782;37.452;2023-03-26T05:16:04;16.15;;;11.90;;
53881;SDS011;39794;55.782;37.452;2023-03-26T05:18:53;14.23;;;9.82;;
53881;SDS011;39794;55.782;37.452;2023-03-26T05:21:27;15.80;;;10.02;;
53881;SDS011;39794;55.782;37.452;2023-03-26T05:23:56;12.90;;;9.57;;
53881;SDS011;39794;55.782;37.452;2023-03-26T05:26:25;11.20;;;8.30;;
53881;SDS011;39794;55.782;37.452;2023-03-26T05:28:55;13.57;;;8.98;;
53881;SDS011;39794;55.782;37.452;2023-03-26T05:31:33;11.40;;;7.80;;
53881;SDS011;39794;55.782;37.452;2023-03-26T05:34:02;12.90;;;9.55;;
53881;SDS011;39794;55.782;37.452;2023-03-26T05:36:33;15.52;;;10.45;;
53881;SDS011;39794;55.782;37.452;2023-03-26T05:39:19;14.73;;;10.55;;
53881;SDS011;39794;55.782;37.452;2023-03-26T05:42:11;14.23;;;9.13;;
53881;SDS011;39794;55.782;37.452;2023-03-26T05:45:00;18.02;;;10.65;;
53881;SDS011;39794;55.782;37.452;2023-03-26T05:47:31;17.30;;;10.75;;
53881;SDS011;39794;55.782;37.452;2023-03-26T05:50:00;15.60;;;10.63;;
53881;SDS011;39794;55.782;37.452;2023-03-26T05:52:30;21.92;;;12.52;;
53881;SDS011;39794;55.782;37.452;2023-03-26T05:55:28;22.20;;;13.93;;
53881;SDS011;39794;55.782;37.452;2023-03-26T05:58:22;22.63;;;14.75;;
53881;SDS011;39794;55.782;37.452;2023-03-26T06:00:55;26.05;;;15.48;;
53881;SDS011;39794;55.782;37.452;2023-03-26T06:03:36;24.50;;;16.58;;
53881;SDS011;39794;55.782;37.452;2023-03-26T06:06:13;26.42;;;16.58;;
53881;SDS011;39794;55.782;37.452;2023-03-26T06:08:54;24.80;;;15.60;;
53881;SDS011;39794;55.782;37.452;2023-03-26T06:11:29;25.05;;;15.00;;
53881;SDS011;39794;55.782;37.452;2023-03-26T06:14:00;28.17;;;17.95;;
53881;SDS011;39794;55.782;37.452;2023-03-26T06:16:30;30.33;;;17.52;;
53881;SDS011;39794;55.782;37.452;2023-03-26T06:19:10;28.67;;;17.58;;
53881;SDS011;39794;55.782;37.452;2023-03-26T06:21:48;31.58;;;18.17;;
53881;SDS011;39794;55.782;37.452;2023-03-26T06:24:40;31.55;;;17.70;;
53881;SDS011;39794;55.782;37.452;2023-03-26T06:27:29;33.08;;;17.35;;
53881;SDS011;39794;55.782;37.452;2023-03-26T06:30:18;36.00;;;16.70;;
53881;SDS011;39794;55.782;37.452;2023-03-26T06:33:07;39.03;;;20.65;;
53881;SDS011;39794;55.782;37.452;2023-03-26T06:35:42;34.85;;;20.70;;
53881;SDS011;39794;55.782;37.452;2023-03-26T06:38:13;35.30;;;16.65;;
53881;SDS011;39794;55.782;37.452;2023-03-26T06:40:43;38.30;;;19.70;;
53881;SDS011;39794;55.782;37.452;2023-03-26T06:43:21;30.67;;;17.80;;
53881;SDS011;39794;55.782;37.452;2023-03-26T06:45:55;34.40;;;18.52;;
53881;SDS011;39794;55.782;37.452;2023-03-26T06:48:43;37.13;;;19.92;;
53881;SDS011;39794;55.782;37.452;2023-03-26T06:51:15;38.92;;;19.08;;
53881;SDS011;39794;55.782;37.452;2023-03-26T06:54:04;34.28;;;17.27;;
53881;SDS011;39794;55.782;37.452;2023-03-26T06:56:51;38.70;;;19.10;;
53881;SDS011;39794;55.782;37.452;2023-03-26T06:59:40;30.08;;;15.30;;
53881;SDS011;39794;55.782;37.452;2023-03-26T07:02:29;26.45;;;14.68;;
53881;SDS011;39794;55.782;37.452;2023-03-26T07:05:17;32.08;;;17.00;;
53881;SDS011;39794;55.782;37.452;2023-03-26T07:08:04;33.83;;;17.63;;
53881;SDS011;39794;55.782;37.452;2023-03-26T07:11:01;20.45;;;11.27;;
53881;SDS011;39794;55.782;37.452;2023-03-26T07:14:07;24.58;;;12.75;;
53881;SDS011;39794;55.782;37.452;2023-03-26T07:16:53;18.48;;;10.65;;
53881;SDS011;39794;55.782;37.452;2023-03-26T07:19:41;24.00;;;12.68;;
53881;SDS011;39794;55.782;37.452;2023-03-26T07:22:12;21.33;;;10.90;;
53881;SDS011;39794;55.782;37.452;2023-03-26T07:25:01;17.75;;;9.30;;
53881;SDS011;39794;55.782;37.452;2023-03-26T07:27:51;22.10;;;10.95;;
53881;SDS011;39794;55.782;37.452;2023-03-26T07:30:51;17.92;;;10.80;;
53881;SDS011;39794;55.782;37.452;2023-03-26T07:33:41;18.40;;;10.05;;
53881;SDS011;39794;55.782;37.452;2023-03-26T07:36:23;16.63;;;8.82;;
53881;SDS011;39794;55.782;37.452;2023-03-26T07:39:18;17.38;;;10.20;;
53881;SDS011;39794;55.782;37.452;2023-03-26T07:45:02;19.35;;;9.13;;
53881;SDS011;39794;55.782;37.452;2023-03-26T07:48:00;18.83;;;11.40;;
53881;SDS011;39794;55.782;37.452;2023-03-26T07:50:53;17.87;;;10.27;;
53881;SDS011;39794;55.782;37.452;2023-03-26T07:53:46;19.08;;;11.57;;
53881;SDS011;39794;55.782;37.452;2023-03-26T07:56:54;17.92;;;10.70;;
53881;SDS011;39794;55.782;37.452;2023-03-26T07:59:50;18.95;;;10.85;;
53881;SDS011;39794;55.782;37.452;2023-03-26T08:02:45;17.20;;;8.57;;
53881;SDS011;39794;55.782;37.452;2023-03-26T08:05:57;17.98;;;10.43;;
53881;SDS011;39794;55.782;37.452;2023-03-26T08:08:52;17.92;;;9.75;;
53881;SDS011;39794;55.782;37.452;2023-03-26T08:11:53;15.73;;;8.55;;
53881;SDS011;39794;55.782;37.452;2023-03-26T08:14:34;10.75;;;7.65;;
53881;SDS011;39794;55.782;37.452;2023-03-26T08:17:09;10.25;;;5.95;;
53881;SDS011;39794;55.782;37.452;2023-03-26T08:19:54;12.45;;;6.63;;
53881;SDS011;39794;55.782;37.452;2023-03-26T08:22:30;11.45;;;6.97;;
53881;SDS011;39794;55.782;37.452;2023-03-26T08:25:10;10.90;;;6.50;;
53881;SDS011;39794;55.782;37.452;2023-03-26T08:27:46;11.77;;;7.50;;
53881;SDS011;39794;55.782;37.452;2023-03-26T08:30:23;10.27;;;6.97;;
53881;SDS011;39794;55.782;37.452;2023-03-26T08:32:57;9.52;;;5.88;;
53881;SDS011;39794;55.782;37.452;2023-03-26T08:35:27;10.90;;;6.55;;
53881;SDS011;39794;55.782;37.452;2023-03-26T08:37:58;11.55;;;6.53;;
53881;SDS011;39794;55.782;37.452;2023-03-26T08:40:37;10.65;;;6.53;;
53881;SDS011;39794;55.782;37.452;2023-03-26T08:43:41;9.38;;;4.95;;
53881;SDS011;39794;55.782;37.452;2023-03-26T08:46:41;8.07;;;5.50;;
53881;SDS011;39794;55.782;37.452;2023-03-26T09:01:23;11.20;;;6.95;;
53881;SDS011;39794;55.782;37.452;2023-03-26T09:04:27;11.07;;;7.25;;
53881;SDS011;39794;55.782;37.452;2023-03-26T09:10:10;11.50;;;6.88;;
53881;SDS011;39794;55.782;37.452;2023-03-26T09:16:10;8.88;;;6.03;;
53881;SDS011;39794;55.782;37.452;2023-03-26T09:27:38;8.63;;;6.10;;
53881;SDS011;39794;55.782;37.452;2023-03-26T09:33:16;7.30;;;4.88;;
53881;SDS011;39794;55.782;37.452;2023-03-26T09:35:53;5.75;;;4.55;;
53881;SDS011;39794;55.782;37.452;2023-03-26T09:38:38;5.95;;;4.38;;
53881;SDS011;39794;55.782;37.452;2023-03-26T09:41:15;6.10;;;5.25;;
53881;SDS011;39794;55.782;37.452;2023-03-26T09:43:50;7.25;;;4.85;;
53881;SDS011;39794;55.782;37.452;2023-03-26T09:46:41;6.60;;;5.00;;
53881;SDS011;39794;55.782;37.452;2023-03-26T09:49:28;6.40;;;4.60;;
53881;SDS011;39794;55.782;37.452;2023-03-26T09:52:13;6.90;;;5.47;;
53881;SDS011;39794;55.782;37.452;2023-03-26T09:54:49;5.85;;;4.82;;
53881;SDS011;39794;55.782;37.452;2023-03-26T09:57:28;6.60;;;5.53;;
53881;SDS011;39794;55.782;37.452;2023-03-26T10:00:20;6.72;;;5.32;;
53881;SDS011;39794;55.782;37.452;2023-03-26T10:03:01;5.50;;;4.97;;
53881;SDS011;39794;55.782;37.452;2023-03-26T10:05:51;7.95;;;6.07;;
53881;SDS011;39794;55.782;37.452;2023-03-26T10:08:29;8.52;;;6.22;;
53881;SDS011;39794;55.782;37.452;2023-03-26T10:11:06;7.53;;;6.28;;
53881;SDS011;39794;55.782;37.452;2023-03-26T10:13:43;7.35;;;5.32;;
53881;SDS011;39794;55.782;37.452;2023-03-26T10:16:21;7.28;;;6.07;;
53881;SDS011;39794;55.782;37.452;2023-03-26T10:18:58;7.32;;;5.80;;
53881;SDS011;39794;55.782;37.452;2023-03-26T10:21:37;13.18;;;6.65;;
53881;SDS011;39794;55.782;37.452;2023-03-26T10:24:12;10.05;;;6.97;;
53881;SDS011;39794;55.782;37.452;2023-03-26T10:26:50;9.35;;;6.65;;
53881;SDS011;39794;55.782;37.452;2023-03-26T10:29:51;9.10;;;7.40;;
53881;SDS011;39794;55.782;37.452;2023-03-26T10:32:35;9.30;;;5.88;;
53881;SDS011;39794;55.782;37.452;2023-03-26T10:35:18;13.65;;;7.05;;
53881;SDS011;39794;55.782;37.452;2023-03-26T10:37:55;9.02;;;6.00;;
53881;SDS011;39794;55.782;37.452;2023-03-26T10:40:34;8.20;;;5.68;;
53881;SDS011;39794;55.782;37.452;2023-03-26T10:43:22;9.60;;;6.70;;
53881;SDS011;39794;55.782;37.452;2023-03-26T10:46:35;10.05;;;7.13;;
53881;SDS011;39794;55.782;37.452;2023-03-26T10:52:32;10.57;;;6.47;;
53881;SDS011;39794;55.782;37.452;2023-03-26T10:55:08;13.25;;;6.70;;
53881;SDS011;39794;55.782;37.452;2023-03-26T10:57:42;12.35;;;6.70;;
53881;SDS011;39794;55.782;37.452;2023-03-26T11:00:15;7.32;;;4.95;;
53881;SDS011;39794;55.782;37.452;2023-03-26T11:02:54;10.27;;;6.28;;
53881;SDS011;39794;55.782;37.452;2023-03-26T11:05:47;12.15;;;7.22;;
53881;SDS011;39794;55.782;37.452;2023-03-26T11:08:22;13.00;;;7.32;;
53881;SDS011;39794;55.782;37.452;2023-03-26T11:10:59;14.73;;;7.10;;
53881;SDS011;39794;55.782;37.452;2023-03-26T11:13:43;15.82;;;7.47;;
53881;SDS011;39794;55.782;37.452;2023-03-26T11:16:16;14.82;;;8.00;;
53881;SDS011;39794;55.782;37.452;2023-03-26T11:18:47;10.93;;;7.20;;
53881;SDS011;39794;55.782;37.452;2023-03-26T11:21:21;12.18;;;8.00;;
53881;SDS011;39794;55.782;37.452;2023-03-26T11:24:02;14.77;;;9.10;;
53881;SDS011;39794;55.782;37.452;2023-03-26T11:26:45;16.30;;;9.05;;
53881;SDS011;39794;55.782;37.452;2023-03-26T11:29:29;17.20;;;9.07;;
53881;SDS011;39794;55.782;37.452;2023-03-26T11:32:04;19.05;;;8.82;;
53881;SDS011;39794;55.782;37.452;2023-03-26T11:34:37;16.55;;;9.90;;
53881;SDS011;39794;55.782;37.452;2023-03-26T11:37:13;16.98;;;8.75;;
53881;SDS011;39794;55.782;37.452;2023-03-26T11:39:46;19.27;;;9.80;;
53881;SDS011;39794;55.782;37.452;2023-03-26T11:42:20;14.57;;;9.90;;
53881;SDS011;39794;55.782;37.452;2023-03-26T11:44:52;19.45;;;11.15;;
53881;SDS011;39794;55.782;37.452;2023-03-26T11:47:24;15.55;;;10.88;;
53881;SDS011;39794;55.782;37.452;2023-03-26T11:49:57;21.90;;;13.65;;
53881;SDS011;39794;55.782;37.452;2023-03-26T11:52:28;23.98;;;13.85;;
53881;SDS011;39794;55.782;37.452;2023-03-26T11:55:01;21.67;;;14.18;;
53881;SDS011;39794;55.782;37.452;2023-03-26T11:57:30;33.50;;;17.02;;
53881;SDS011;39794;55.782;37.452;2023-03-26T12:00:01;28.90;;;18.13;;
53881;SDS011;39794;55.782;37.452;2023-03-26T12:02:38;28.35;;;18.38;;
53881;SDS011;39794;55.782;37.452;2023-03-26T12:05:13;31.02;;;17.95;;
53881;SDS011;39794;55.782;37.452;2023-03-26T12:07:45;32.58;;;19.75;;
53881;SDS011;39794;55.782;37.452;2023-03-26T12:10:22;29.60;;;18.35;;
53881;SDS011;39794;55.782;37.452;2023-03-26T12:12:56;31.70;;;19.42;;
53881;SDS011;39794;55.782;37.452;2023-03-26T12:15:26;32.75;;;19.48;;
53881;SDS011;39794;55.782;37.452;2023-03-26T12:17:55;27.90;;;17.88;;
53881;SDS011;39794;55.782;37.452;2023-03-26T12:20:32;24.80;;;15.82;;
53881;SDS011;39794;55.782;37.452;2023-03-26T12:23:04;27.65;;;16.77;;
53881;SDS011;39794;55.782;37.452;2023-03-26T12:25:36;26.98;;;16.48;;
53881;SDS011;39794;55.782;37.452;2023-03-26T12:28:14;23.58;;;16.15;;
53881;SDS011;39794;55.782;37.452;2023-03-26T12:30:49;29.88;;;17.45;;
53881;SDS011;39794;55.782;37.452;2023-03-26T12:33:23;23.88;;;16.30;;
53881;SDS011;39794;55.782;37.452;2023-03-26T12:35:55;29.17;;;18.25;;
53881;SDS011;39794;55.782;37.452;2023-03-26T12:38:28;32.42;;;18.05;;
53881;SDS011;39794;55.782;37.452;2023-03-26T12:41:04;30.63;;;18.67;;
53881;SDS011;39794;55.782;37.452;2023-03-26T12:43:54;31.25;;;17.25;;
53881;SDS011;39794;55.782;37.452;2023-03-26T12:46:42;30.25;;;17.23;;
53881;SDS011;39794;55.782;37.452;2023-03-26T12:49:33;29.52;;;18.83;;
53881;SDS011;39794;55.782;37.452;2023-03-26T12:52:07;29.30;;;20.35;;
53881;SDS011;39794;55.782;37.452;2023-03-26T12:54:43;31.10;;;18.92;;
53881;SDS011;39794;55.782;37.452;2023-03-26T12:57:19;28.88;;;18.23;;
53881;SDS011;39794;55.782;37.452;2023-03-26T12:59:51;30.27;;;18.53;;
53881;SDS011;39794;55.782;37.452;2023-03-26T13:02:28;30.63;;;19.13;;
53881;SDS011;39794;55.782;37.452;2023-03-26T13:05:27;24.83;;;17.05;;
53881;SDS011;39794;55.782;37.452;2023-03-26T13:08:23;27.65;;;17.67;;
53881;SDS011;39794;55.782;37.452;2023-03-26T13:11:00;28.00;;;17.42;;
53881;SDS011;39794;55.782;37.452;2023-03-26T13:13:41;25.60;;;17.05;;
53881;SDS011;39794;55.782;37.452;2023-03-26T13:16:29;28.23;;;15.45;;
53881;SDS011;39794;55.782;37.452;2023-03-26T13:19:04;22.05;;;14.45;;
53881;SDS011;39794;55.782;37.452;2023-03-26T13:21:37;20.13;;;13.23;;
53881;SDS011;39794;55.782;37.452;2023-03-26T13:24:14;18.00;;;12.85;;
53881;SDS011;39794;55.782;37.452;2023-03-26T13:26:52;19.40;;;12.70;;
53881;SDS011;39794;55.782;37.452;2023-03-26T13:29:30;15.90;;;10.70;;
53881;SDS011;39794;55.782;37.452;2023-03-26T13:32:05;19.13;;;11.63;;
53881;SDS011;39794;55.782;37.452;2023-03-26T13:34:48;15.65;;;10.38;;
53881;SDS011;39794;55.782;37.452;2023-03-26T13:37:24;17.83;;;10.82;;
53881;SDS011;39794;55.782;37.452;2023-03-26T13:39:57;16.48;;;10.43;;
53881;SDS011;39794;55.782;37.452;2023-03-26T13:42:38;15.45;;;9.05;;
53881;SDS011;39794;55.782;37.452;2023-03-26T13:45:13;16.48;;;9.65;;
53881;SDS011;39794;55.782;37.452;2023-03-26T13:47:53;15.63;;;10.52;;
53881;SDS011;39794;55.782;37.452;2023-03-26T13:50:22;17.92;;;11.30;;
53881;SDS011;39794;55.782;37.452;2023-03-26T13:52:54;14.60;;;9.82;;
53881;SDS011;39794;55.782;37.452;2023-03-26T13:55:27;22.15;;;10.57;;
53881;SDS011;39794;55.782;37.452;2023-03-26T13:57:58;16.85;;;10.32;;
53881;SDS011;39794;55.782;37.452;2023-03-26T14:00:38;18.67;;;12.45;;
53881;SDS011;39794;55.782;37.452;2023-03-26T14:03:23;17.63;;;11.65;;
53881;SDS011;39794;55.782;37.452;2023-03-26T14:05:55;16.73;;;10.90;;
53881;SDS011;39794;55.782;37.452;2023-03-26T14:08:26;21.77;;;10.95;;
53881;SDS011;39794;55.782;37.452;2023-03-26T14:11:00;18.48;;;10.82;;
53881;SDS011;39794;55.782;37.452;2023-03-26T14:13:35;17.70;;;11.82;;
53881;SDS011;39794;55.782;37.452;2023-03-26T14:16:10;20.20;;;12.40;;
53881;SDS011;39794;55.782;37.452;2023-03-26T14:18:43;16.73;;;10.45;;
53881;SDS011;39794;55.782;37.452;2023-03-26T14:24:16;15.25;;;11.13;;
53881;SDS011;39794;55.782;37.452;2023-03-26T14:26:56;18.50;;;11.60;;
53881;SDS011;39794;55.782;37.452;2023-03-26T14:29:47;16.42;;;9.75;;
53881;SDS011;39794;55.782;37.452;2023-03-26T14:32:28;16.05;;;10.38;;
53881;SDS011;39794;55.782;37.452;2023-03-26T14:35:09;15.00;;;9.88;;
53881;SDS011;39794;55.782;37.452;2023-03-26T14:37:55;17.52;;;10.90;;
53881;SDS011;39794;55.782;37.452;2023-03-26T14:40:54;17.08;;;11.07;;
53881;SDS011;39794;55.782;37.452;2023-03-26T14:43:38;21.27;;;10.93;;
53881;SDS011;39794;55.782;37.452;2023-03-26T14:46:25;16.33;;;9.95;;
53881;SDS011;39794;55.782;37.452;2023-03-26T14:49:10;12.85;;;8.38;;
53881;SDS011;39794;55.782;37.452;2023-03-26T14:52:04;17.58;;;9.45;;
53881;SDS011;39794;55.782;37.452;2023-03-26T14:54:37;17.10;;;10.20;;
53881;SDS011;39794;55.782;37.452;2023-03-26T15:12:42;11.15;;;7.30;;
53881;SDS011;39794;55.782;37.452;2023-03-26T15:15:32;10.13;;;7.00;;
53881;SDS011;39794;55.782;37.452;2023-03-26T15:21:39;10.23;;;7.10;;
53881;SDS011;39794;55.782;37.452;2023-03-26T15:27:37;12.73;;;6.75;;
53881;SDS011;39794;55.782;37.452;2023-03-26T15:30:31;11.50;;;7.28;;
53881;SDS011;39794;55.782;37.452;2023-03-26T15:33:58;10.70;;;7.13;;
53881;SDS011;39794;55.782;37.452;2023-03-26T15:37:05;9.20;;;6.97;;
53881;SDS011;39794;55.782;37.452;2023-03-26T15:39:59;12.40;;;8.15;;
53881;SDS011;39794;55.782;37.452;2023-03-26T15:42:50;10.52;;;7.45;;
53881;SDS011;39794;55.782;37.452;2023-03-26T15:45:29;9.55;;;7.18;;
53881;SDS011;39794;55.782;37.452;2023-03-26T15:48:18;11.95;;;7.97;;
53881;SDS011;39794;55.782;37.452;2023-03-26T15:51:05;12.02;;;7.13;;
53881;SDS011;39794;55.782;37.452;2023-03-26T15:53:48;10.32;;;7.55;;
53881;SDS011;39794;55.782;37.452;2023-03-26T15:59:01;9.75;;;6.72;;
53881;SDS011;39794;55.782;37.452;2023-03-26T16:01:40;10.80;;;6.90;;
53881;SDS011;39794;55.782;37.452;2023-03-26T16:07:33;11.52;;;6.70;;
53881;SDS011;39794;55.782;37.452;2023-03-26T16:10:24;10.82;;;6.78;;
53881;SDS011;39794;55.782;37.452;2023-03-26T16:16:00;11.43;;;7.03;;
53881;SDS011;39794;55.782;37.452;2023-03-26T16:18:44;11.75;;;7.00;;
53881;SDS011;39794;55.782;37.452;2023-03-26T16:24:28;10.27;;;6.80;;
53881;SDS011;39794;55.782;37.452;2023-03-26T16:32:55;8.83;;;6.67;;
53881;SDS011;39794;55.782;37.452;2023-03-26T16:35:37;11.93;;;7.10;;
53881;SDS011;39794;55.782;37.452;2023-03-26T16:38:25;13.45;;;6.75;;
53881;SDS011;39794;55.782;37.452;2023-03-26T16:40:58;11.10;;;7.10;;
53881;SDS011;39794;55.782;37.452;2023-03-26T16:43:37;9.95;;;6.63;;
53881;SDS011;39794;55.782;37.452;2023-03-26T16:46:13;9.07;;;6.63;;